createdAt,value
2023-05-06T00:00:20.934Z,15.00
2023-05-06T00:02:48.238Z,14.90
2023-05-06T00:05:18.498Z,14.80
2023-05-06T00:07:48.588Z,14.80
2023-05-06T00:10:16.302Z,14.90
2023-05-06T00:12:43.308Z,15.00
2023-05-06T00:15:11.618Z,14.90
2023-05-06T00:17:38.987Z,14.80
2023-05-06T00:20:07.311Z,14.90
2023-05-06T00:22:34.557Z,14.90
2023-05-06T00:25:01.901Z,14.90
2023-05-06T00:27:29.014Z,14.90
2023-05-06T00:29:57.963Z,14.80
2023-05-06T00:32:25.090Z,14.80
2023-05-06T00:34:52.162Z,14.80
2023-05-06T00:37:19.287Z,14.90
2023-05-06T00:39:46.328Z,14.80
2023-05-06T00:42:13.593Z,14.90
2023-05-06T00:44:40.701Z,14.90
2023-05-06T00:47:08.518Z,14.80
2023-05-06T00:49:35.722Z,14.80
2023-05-06T00:52:03.802Z,14.80
2023-05-06T00:54:30.941Z,14.70
2023-05-06T00:56:58.229Z,14.20
2023-05-06T00:59:25.525Z,14.20
2023-05-06T01:01:54.035Z,14.30
2023-05-06T01:04:24.055Z,14.40
2023-05-06T01:07:24.850Z,14.50
2023-05-06T01:10:01.311Z,14.40
2023-05-06T01:12:44.471Z,14.50
2023-05-06T01:15:22.711Z,14.30
2023-05-06T01:17:53.619Z,14.30
2023-05-06T01:20:22.119Z,14.20
2023-05-06T01:22:50.323Z,14.30
2023-05-06T01:25:23.966Z,14.30
2023-05-06T01:27:51.214Z,14.20
2023-05-06T01:30:19.787Z,14.20
2023-05-06T01:33:07.137Z,14.20
2023-05-06T01:35:48.092Z,14.20
2023-05-06T01:38:24.877Z,14.20
2023-05-06T01:40:55.649Z,14.10
2023-05-06T01:43:29.379Z,14.10
2023-05-06T01:45:57.373Z,14.20
2023-05-06T01:48:28.562Z,14.30
2023-05-06T01:50:55.962Z,14.30
2023-05-06T01:53:23.086Z,14.30
2023-05-06T01:55:50.283Z,14.30
2023-05-06T01:58:17.478Z,14.20
2023-05-06T02:00:44.577Z,14.30
2023-05-06T02:03:12.462Z,14.30
2023-05-06T02:05:39.747Z,14.20
2023-05-06T02:08:07.468Z,14.30
2023-05-06T02:10:34.668Z,14.20
2023-05-06T02:13:05.928Z,14.10
2023-05-06T02:15:33.138Z,14.00
2023-05-06T02:18:01.629Z,13.90
2023-05-06T02:20:28.838Z,13.90
2023-05-06T02:22:56.363Z,13.80
2023-05-06T02:25:23.514Z,13.80
2023-05-06T02:27:50.646Z,13.80
2023-05-06T02:30:17.751Z,14.00
2023-05-06T02:32:44.890Z,14.00
2023-05-06T02:35:12.227Z,13.90
2023-05-06T02:37:39.474Z,14.00
2023-05-06T02:40:07.635Z,13.80
2023-05-06T02:42:35.885Z,13.80
2023-05-06T02:45:03.436Z,13.90
2023-05-06T02:47:32.657Z,14.00
2023-05-06T02:49:59.798Z,14.00
2023-05-06T02:52:27.039Z,13.90
2023-05-06T02:54:54.226Z,13.90
2023-05-06T02:57:21.530Z,13.90
2023-05-06T02:59:48.674Z,13.90
2023-05-06T03:02:15.825Z,13.90
2023-05-06T03:04:42.926Z,13.90
2023-05-06T03:07:10.244Z,13.90
2023-05-06T03:09:37.604Z,13.90
2023-05-06T03:12:06.270Z,14.00
2023-05-06T03:14:33.570Z,14.00
2023-05-06T03:17:00.848Z,14.10
2023-05-06T03:19:27.929Z,14.00
2023-05-06T03:21:55.242Z,14.00
2023-05-06T03:24:22.494Z,14.00
2023-05-06T03:26:49.643Z,14.10
2023-05-06T03:29:16.781Z,14.00
2023-05-06T03:31:45.845Z,14.00
2023-05-06T03:34:13.542Z,14.00
2023-05-06T03:36:41.338Z,14.10
2023-05-06T03:39:08.464Z,14.10
2023-05-06T03:41:37.657Z,14.20
2023-05-06T03:44:05.282Z,14.10
2023-05-06T03:46:32.917Z,14.10
2023-05-06T03:49:02.838Z,14.20
2023-05-06T03:51:30.857Z,14.30
2023-05-06T03:53:58.370Z,14.20
2023-05-06T03:56:25.507Z,14.20
2023-05-06T03:58:55.427Z,14.30
2023-05-06T04:01:25.125Z,14.30
2023-05-06T04:03:54.426Z,14.40
2023-05-06T04:06:23.578Z,14.40
2023-05-06T04:08:50.700Z,14.40
2023-05-06T04:11:18.754Z,14.30
2023-05-06T04:13:47.092Z,14.30
2023-05-06T04:16:17.670Z,14.30
2023-05-06T04:18:46.245Z,14.30
2023-05-06T04:21:15.882Z,14.30
2023-05-06T04:23:48.347Z,14.40
2023-05-06T04:26:19.470Z,14.40
2023-05-06T04:28:47.345Z,14.40
2023-05-06T04:31:15.643Z,14.50
2023-05-06T04:33:45.940Z,14.50
2023-05-06T04:36:19.817Z,14.60
2023-05-06T04:39:01.026Z,14.60
2023-05-06T04:41:31.331Z,14.60
2023-05-06T04:43:59.254Z,14.50
2023-05-06T04:46:26.534Z,14.60
2023-05-06T04:48:55.187Z,14.60
2023-05-06T04:51:23.651Z,14.70
2023-05-06T04:53:51.413Z,14.70
2023-05-06T04:56:19.047Z,14.80
2023-05-06T04:58:49.646Z,14.90
2023-05-06T05:01:17.169Z,15.00
2023-05-06T05:03:44.766Z,14.60
2023-05-06T05:06:13.749Z,14.70
2023-05-06T05:08:40.869Z,14.60
2023-05-06T05:11:09.395Z,14.60
2023-05-06T05:13:37.202Z,14.70
2023-05-06T05:16:06.751Z,14.90
2023-05-06T05:18:36.843Z,14.70
2023-05-06T05:21:11.086Z,14.70
2023-05-06T05:23:38.261Z,14.90
2023-05-06T05:26:05.636Z,15.00
2023-05-06T05:28:32.744Z,14.90
2023-05-06T05:31:05.680Z,14.80
2023-05-06T05:33:35.788Z,14.90
2023-05-06T05:36:06.088Z,14.80
2023-05-06T05:38:34.261Z,14.90
2023-05-06T05:41:01.492Z,14.80
2023-05-06T05:43:29.385Z,14.80
2023-05-06T05:45:56.488Z,14.90
2023-05-06T05:48:24.111Z,15.00
2023-05-06T05:50:52.018Z,14.90
2023-05-06T05:53:20.080Z,14.70
2023-05-06T05:55:47.173Z,14.60
2023-05-06T05:58:14.997Z,14.60
2023-05-06T06:00:43.430Z,14.50
2023-05-06T06:03:14.898Z,14.70
2023-05-06T06:05:42.015Z,14.80
2023-05-06T06:08:10.149Z,14.90
2023-05-06T06:10:37.404Z,15.00
2023-05-06T06:13:10.879Z,15.00
2023-05-06T06:15:38.051Z,15.00
2023-05-06T06:18:08.156Z,15.00
2023-05-06T06:20:36.872Z,15.10
2023-05-06T06:23:03.993Z,14.90
2023-05-06T06:25:31.288Z,15.00
2023-05-06T06:27:58.807Z,14.80
2023-05-06T06:30:26.017Z,14.90
2023-05-06T06:32:55.028Z,15.00
2023-05-06T06:35:23.499Z,15.20
2023-05-06T06:37:51.061Z,15.30
2023-05-06T06:40:18.195Z,15.30
2023-05-06T06:42:46.523Z,15.30
2023-05-06T06:45:32.721Z,15.50
2023-05-06T06:47:59.877Z,15.60
2023-05-06T06:50:26.981Z,15.70
2023-05-06T06:52:54.073Z,15.80
2023-05-06T06:55:21.793Z,15.80
2023-05-06T06:57:49.251Z,15.90
2023-05-06T07:00:16.884Z,16.10
2023-05-06T07:02:44.525Z,16.10
2023-05-06T07:05:11.786Z,16.30
2023-05-06T07:07:39.118Z,16.00
2023-05-06T07:10:07.316Z,15.90
2023-05-06T07:12:34.452Z,15.70
2023-05-06T07:15:01.519Z,15.90
2023-05-06T07:17:28.576Z,15.90
2023-05-06T07:19:55.760Z,16.20
2023-05-06T07:22:22.837Z,15.90
2023-05-06T07:24:49.917Z,16.10
2023-05-06T07:27:16.975Z,15.80
2023-05-06T07:29:44.040Z,15.80
2023-05-06T07:32:11.199Z,15.90
2023-05-06T07:34:39.017Z,16.20
2023-05-06T07:37:08.041Z,16.00
2023-05-06T07:39:35.411Z,16.00
2023-05-06T07:42:02.481Z,16.40
2023-05-06T07:44:29.540Z,16.00
2023-05-06T07:46:56.814Z,16.30
2023-05-06T07:49:24.217Z,16.50
2023-05-06T07:51:51.741Z,16.50
2023-05-06T07:54:19.095Z,16.40
2023-05-06T07:56:46.323Z,16.40
2023-05-06T07:59:13.498Z,16.40
2023-05-06T08:01:40.770Z,16.90
2023-05-06T08:04:08.025Z,16.60
2023-05-06T08:06:35.358Z,16.30
2023-05-06T08:09:02.750Z,15.90
2023-05-06T08:11:30.262Z,15.80
2023-05-06T08:13:57.648Z,16.30
2023-05-06T08:16:25.548Z,16.50
2023-05-06T08:18:53.013Z,16.60
2023-05-06T08:21:20.234Z,16.50
2023-05-06T08:23:47.768Z,16.60
2023-05-06T08:26:15.110Z,16.50
2023-05-06T08:28:42.331Z,16.20
2023-05-06T08:31:09.499Z,15.90
2023-05-06T08:33:36.696Z,16.10
2023-05-06T08:36:07.025Z,16.30
2023-05-06T08:38:34.413Z,16.20
2023-05-06T08:41:09.818Z,16.10
2023-05-06T08:43:42.678Z,16.30
2023-05-06T08:46:09.942Z,15.80
2023-05-06T08:48:37.677Z,15.90
2023-05-06T08:51:05.442Z,15.70
2023-05-06T08:53:34.124Z,15.70
2023-05-06T08:56:11.644Z,15.80
2023-05-06T08:58:41.526Z,15.70
2023-05-06T09:01:09.528Z,15.70
2023-05-06T09:03:36.967Z,15.40
2023-05-06T09:06:04.654Z,15.30
2023-05-06T09:08:32.035Z,15.50
2023-05-06T09:10:59.826Z,15.50
2023-05-06T09:13:26.995Z,16.00
2023-05-06T09:15:55.349Z,16.20
2023-05-06T09:18:23.217Z,16.30
2023-05-06T09:20:50.630Z,16.00
2023-05-06T09:23:18.592Z,15.80
2023-05-06T09:25:51.380Z,15.60
2023-05-06T09:28:18.744Z,15.80
2023-05-06T09:30:48.005Z,16.10
2023-05-06T09:33:15.484Z,16.30
2023-05-06T09:35:44.386Z,16.70
2023-05-06T09:38:11.748Z,16.80
2023-05-06T09:40:39.885Z,16.70
2023-05-06T09:43:07.842Z,16.70
2023-05-06T09:45:36.359Z,16.90
2023-05-06T09:48:04.055Z,16.90
2023-05-06T09:50:32.653Z,17.20
2023-05-06T09:53:03.740Z,17.30
2023-05-06T09:55:31.349Z,17.40
2023-05-06T09:57:59.518Z,17.20
2023-05-06T10:00:29.063Z,16.90
2023-05-06T10:02:57.129Z,16.90
2023-05-06T10:05:26.520Z,17.10
2023-05-06T10:07:55.035Z,16.80
2023-05-06T10:10:24.866Z,16.50
2023-05-06T10:12:53.417Z,16.00
2023-05-06T10:15:20.698Z,16.30
2023-05-06T10:17:50.472Z,16.10
2023-05-06T10:20:21.348Z,16.40
2023-05-06T10:23:07.985Z,16.80
2023-05-06T10:25:41.117Z,16.90
2023-05-06T10:28:19.828Z,16.80
2023-05-06T10:30:58.673Z,17.00
2023-05-06T10:33:28.417Z,17.00
2023-05-06T10:36:20.493Z,17.50
2023-05-06T10:38:54.951Z,17.60
2023-05-06T10:41:23.806Z,17.30
2023-05-06T10:43:56.885Z,17.30
2023-05-06T10:46:26.953Z,17.50
2023-05-06T10:49:06.546Z,17.50
2023-05-06T10:51:35.180Z,17.60
2023-05-06T10:54:20.502Z,17.40
2023-05-06T10:56:50.995Z,17.20
2023-05-06T10:59:24.513Z,16.90
2023-05-06T11:02:08.023Z,16.60
2023-05-06T11:04:35.556Z,16.40
2023-05-06T11:07:18.503Z,16.90
2023-05-06T11:10:06.252Z,17.30
2023-05-06T11:12:52.592Z,17.10
2023-05-06T11:15:43.170Z,17.00
2023-05-06T11:18:29.176Z,16.60
2023-05-06T11:21:04.609Z,16.30
2023-05-06T11:23:47.018Z,16.80
2023-05-06T11:26:15.104Z,17.20
2023-05-06T11:28:50.582Z,17.40
2023-05-06T11:31:21.029Z,16.90
2023-05-06T11:33:50.395Z,17.10
2023-05-06T11:36:19.620Z,17.80
2023-05-06T11:38:49.694Z,18.30
2023-05-06T11:41:17.579Z,17.90
2023-05-06T11:43:52.170Z,17.80
2023-05-06T11:46:21.275Z,18.30
2023-05-06T11:48:49.478Z,18.80
2023-05-06T11:51:22.073Z,19.30
2023-05-06T11:53:49.166Z,19.60
2023-05-06T11:56:16.267Z,19.80
2023-05-06T11:58:44.200Z,19.50
2023-05-06T12:01:11.269Z,20.00
2023-05-06T12:03:38.525Z,19.60
2023-05-06T12:06:06.196Z,19.20
2023-05-06T12:08:35.142Z,19.30
2023-05-06T12:11:06.355Z,19.00
2023-05-06T12:13:36.871Z,19.70
2023-05-06T12:16:08.319Z,20.40
2023-05-06T12:18:36.266Z,20.90
2023-05-06T12:21:03.848Z,20.70
2023-05-06T12:23:31.156Z,20.40
2023-05-06T12:26:05.120Z,20.40
2023-05-06T12:28:35.284Z,20.30
2023-05-06T12:31:24.392Z,19.90
2023-05-06T12:33:51.802Z,20.40
2023-05-06T12:36:19.834Z,21.70
2023-05-06T12:38:57.775Z,22.30
2023-05-06T12:41:36.829Z,22.10
2023-05-06T12:44:37.666Z,21.50
2023-05-06T12:47:27.303Z,21.30
2023-05-06T12:50:00.797Z,20.80
2023-05-06T12:52:30.285Z,20.50
2023-05-06T12:55:00.868Z,20.50
2023-05-06T12:57:28.189Z,21.70
2023-05-06T12:59:56.450Z,22.40
2023-05-06T13:02:23.703Z,22.40
2023-05-06T13:04:51.094Z,22.00
2023-05-06T13:07:18.260Z,21.80
2023-05-06T13:09:45.503Z,21.80
2023-05-06T13:12:13.097Z,21.80
2023-05-06T13:14:40.561Z,22.20
2023-05-06T13:17:08.495Z,23.00
2023-05-06T13:19:36.022Z,23.20
2023-05-06T13:22:03.313Z,22.80
2023-05-06T13:24:32.174Z,22.00
2023-05-06T13:27:01.265Z,21.50
2023-05-06T13:29:29.654Z,20.90
2023-05-06T13:31:57.052Z,20.20
2023-05-06T13:34:24.296Z,19.50
2023-05-06T13:36:52.105Z,19.30
2023-05-06T13:39:19.872Z,19.10
2023-05-06T13:41:48.248Z,19.00
2023-05-06T13:44:18.648Z,19.20
2023-05-06T13:46:46.854Z,20.00
2023-05-06T13:49:18.466Z,22.20
2023-05-06T13:51:45.690Z,23.10
2023-05-06T13:54:12.948Z,24.20
2023-05-06T13:56:40.129Z,26.60
2023-05-06T13:59:08.349Z,26.80
2023-05-06T14:01:36.130Z,25.30
2023-05-06T14:04:03.456Z,24.30
2023-05-06T14:06:31.202Z,23.20
2023-05-06T14:08:58.449Z,22.00
2023-05-06T14:11:26.129Z,21.00
2023-05-06T14:13:55.860Z,20.20
2023-05-06T14:16:24.226Z,19.70
2023-05-06T14:18:51.418Z,19.20
2023-05-06T14:21:18.496Z,18.90
2023-05-06T14:23:45.767Z,18.90
2023-05-06T14:26:14.186Z,19.10
2023-05-06T14:28:41.473Z,19.20
2023-05-06T14:31:08.729Z,19.10
2023-05-06T14:33:37.970Z,18.90
2023-05-06T14:36:06.037Z,18.70
2023-05-06T14:38:36.194Z,18.70
2023-05-06T14:41:03.283Z,18.70
2023-05-06T14:43:30.618Z,19.00
2023-05-06T14:45:57.670Z,19.90
2023-05-06T14:48:25.500Z,20.50
2023-05-06T14:50:53.120Z,20.80
2023-05-06T14:53:20.182Z,21.00
2023-05-06T14:55:48.902Z,21.00
2023-05-06T14:58:16.068Z,21.70
2023-05-06T15:00:43.436Z,22.00
2023-05-06T15:03:10.674Z,21.50
2023-05-06T15:05:38.129Z,20.70
2023-05-06T15:08:06.849Z,19.90
2023-05-06T15:10:33.947Z,19.30
2023-05-06T15:13:01.165Z,18.80
2023-05-06T15:15:28.370Z,18.70
2023-05-06T15:17:55.457Z,18.30
2023-05-06T15:20:22.636Z,18.20
2023-05-06T15:22:49.822Z,17.90
2023-05-06T15:25:30.270Z,18.00
2023-05-06T15:28:01.838Z,18.10
2023-05-06T15:30:29.001Z,18.30
2023-05-06T15:32:56.104Z,18.40
2023-05-06T15:35:23.651Z,18.60
2023-05-06T15:37:58.528Z,18.70
2023-05-06T15:40:26.611Z,18.40
2023-05-06T15:42:53.897Z,17.90
2023-05-06T15:45:22.171Z,17.80
2023-05-06T15:47:49.317Z,17.70
2023-05-06T15:50:31.690Z,18.00
2023-05-06T15:53:01.270Z,19.70
2023-05-06T15:55:28.904Z,20.80
2023-05-06T15:57:57.965Z,21.00
2023-05-06T16:00:27.884Z,20.60
2023-05-06T16:02:55.224Z,19.90
2023-05-06T16:05:22.616Z,19.10
2023-05-06T16:07:49.787Z,18.70
2023-05-06T16:10:17.077Z,18.40
2023-05-06T16:12:44.268Z,18.10
2023-05-06T16:15:11.912Z,18.20
2023-05-06T16:17:39.086Z,18.50
2023-05-06T16:20:10.379Z,18.80
2023-05-06T16:22:40.171Z,19.00
2023-05-06T16:25:07.963Z,18.70
2023-05-06T16:27:35.549Z,18.60
2023-05-06T16:30:02.898Z,18.20
2023-05-06T16:32:31.098Z,18.90
2023-05-06T16:34:59.482Z,19.80
2023-05-06T16:37:28.276Z,19.60
2023-05-06T16:39:55.980Z,19.30
2023-05-06T16:42:23.272Z,18.80
2023-05-06T16:44:51.228Z,18.40
2023-05-06T16:47:23.458Z,18.10
2023-05-06T16:49:51.176Z,17.80
2023-05-06T16:52:19.548Z,17.50
2023-05-06T16:54:46.679Z,17.30
2023-05-06T16:57:13.843Z,17.10
2023-05-06T16:59:40.993Z,16.80
2023-05-06T17:02:08.249Z,16.40
2023-05-06T17:04:36.789Z,16.20
2023-05-06T17:07:04.441Z,16.20
2023-05-06T17:09:31.561Z,16.10
2023-05-06T17:11:58.847Z,16.00
2023-05-06T17:14:26.149Z,15.90
2023-05-06T17:16:53.374Z,15.80
2023-05-06T17:19:20.547Z,15.80
2023-05-06T17:21:47.647Z,15.70
2023-05-06T17:24:14.725Z,15.50
2023-05-06T17:26:41.804Z,15.30
2023-05-06T17:29:08.880Z,15.00
2023-05-06T17:31:36.010Z,14.90
2023-05-06T17:34:03.897Z,14.80
2023-05-06T17:36:31.700Z,14.80
2023-05-06T17:39:04.941Z,15.00
2023-05-06T17:41:32.651Z,15.00
2023-05-06T17:43:59.964Z,15.00
2023-05-06T17:46:28.641Z,15.00
2023-05-06T17:48:55.901Z,14.80
2023-05-06T17:51:23.250Z,14.80
2023-05-06T17:53:51.184Z,14.90
2023-05-06T17:56:20.279Z,14.90
2023-05-06T17:58:48.222Z,14.80
2023-05-06T18:01:15.670Z,14.70
2023-05-06T18:03:44.076Z,14.70
2023-05-06T18:06:14.493Z,14.50
2023-05-06T18:08:42.130Z,14.40
2023-05-06T18:11:09.373Z,14.40
2023-05-06T18:13:36.982Z,14.30
2023-05-06T18:16:07.548Z,14.20
2023-05-06T18:18:34.717Z,14.20
2023-05-06T18:21:02.335Z,14.10
2023-05-06T18:23:29.971Z,14.00
2023-05-06T18:25:57.272Z,13.90
2023-05-06T18:28:24.871Z,13.70
2023-05-06T18:30:54.426Z,13.60
2023-05-06T18:33:21.941Z,13.50
2023-05-06T18:35:49.224Z,13.60
2023-05-06T18:38:16.354Z,13.60
2023-05-06T18:40:46.737Z,13.50
2023-05-06T18:43:13.809Z,13.50
2023-05-06T18:45:44.222Z,13.50
2023-05-06T18:48:12.652Z,13.40
2023-05-06T18:50:41.729Z,13.30
2023-05-06T18:53:08.847Z,13.20
2023-05-06T18:55:37.079Z,13.10
2023-05-06T18:58:06.263Z,13.10
2023-05-06T19:00:34.777Z,13.20
2023-05-06T19:03:02.542Z,13.00
2023-05-06T19:05:29.698Z,13.10
2023-05-06T19:07:56.918Z,13.10
2023-05-06T19:10:23.994Z,13.10
2023-05-06T19:12:51.367Z,13.00
2023-05-06T19:15:22.220Z,13.00
2023-05-06T19:17:49.311Z,13.00
2023-05-06T19:20:16.608Z,12.90
2023-05-06T19:22:44.561Z,12.90
2023-05-06T19:25:12.169Z,12.90
2023-05-06T19:27:39.484Z,12.90
2023-05-06T19:30:07.562Z,13.00
2023-05-06T19:32:34.830Z,13.00
2023-05-06T19:35:08.413Z,12.90
2023-05-06T19:37:36.647Z,12.90
2023-05-06T19:40:05.234Z,12.80
2023-05-06T19:42:34.267Z,12.80
2023-05-06T19:45:08.307Z,12.80
2023-05-06T19:47:35.706Z,12.90
2023-05-06T19:50:03.399Z,12.80
2023-05-06T19:52:31.340Z,12.70
2023-05-06T19:54:59.650Z,12.80
2023-05-06T19:57:27.706Z,12.60
2023-05-06T19:59:56.756Z,12.60
2023-05-06T20:02:24.083Z,12.50
2023-05-06T20:04:51.516Z,12.50
2023-05-06T20:07:20.949Z,12.30
2023-05-06T20:09:55.144Z,12.40
2023-05-06T20:12:31.641Z,12.40
2023-05-06T20:14:59.799Z,12.50
2023-05-06T20:17:27.248Z,12.50
2023-05-06T20:19:57.274Z,12.50
2023-05-06T20:22:26.085Z,12.50
2023-05-06T20:24:54.974Z,12.60
2023-05-06T20:27:22.185Z,12.50
2023-05-06T20:29:51.721Z,12.60
2023-05-06T20:32:22.113Z,12.50
2023-05-06T20:34:50.282Z,12.50
2023-05-06T20:37:21.428Z,12.40
2023-05-06T20:39:48.563Z,12.50
2023-05-06T20:42:16.737Z,12.50
2023-05-06T20:44:44.079Z,12.50
2023-05-06T20:47:13.265Z,12.50
2023-05-06T20:49:41.645Z,12.50
2023-05-06T20:52:14.340Z,12.50
2023-05-06T20:54:45.770Z,12.40
2023-05-06T20:57:17.556Z,12.40
2023-05-06T20:59:45.171Z,12.30
2023-05-06T21:02:12.812Z,12.30
2023-05-06T21:04:41.460Z,12.20
2023-05-06T21:07:08.667Z,12.10
2023-05-06T21:09:35.924Z,12.10
2023-05-06T21:12:03.083Z,12.10
2023-05-06T21:14:30.209Z,12.10
2023-05-06T21:16:57.280Z,12.10
2023-05-06T21:19:24.495Z,12.10
2023-05-06T21:21:51.594Z,12.20
2023-05-06T21:24:18.605Z,12.20
2023-05-06T21:26:45.835Z,12.30
2023-05-06T21:29:12.888Z,12.30
2023-05-06T21:31:40.057Z,12.30
2023-05-06T21:34:08.057Z,12.40
2023-05-06T21:36:38.333Z,12.40
2023-05-06T21:39:14.015Z,12.30
2023-05-06T21:41:41.618Z,12.20
2023-05-06T21:44:10.291Z,12.20
2023-05-06T21:46:38.054Z,12.20
2023-05-06T21:49:05.405Z,12.10
2023-05-06T21:51:35.951Z,12.20
2023-05-06T21:54:03.509Z,12.10
2023-05-06T21:56:30.692Z,12.10
2023-05-06T21:58:57.875Z,12.20
2023-05-06T22:01:29.244Z,12.10
2023-05-06T22:03:56.635Z,12.20
2023-05-06T22:06:23.845Z,12.10
2023-05-06T22:08:51.477Z,12.10
2023-05-06T22:11:18.652Z,12.10
2023-05-06T22:13:45.775Z,12.10
2023-05-06T22:16:13.210Z,12.10
2023-05-06T22:18:41.613Z,12.10
2023-05-06T22:21:09.802Z,11.90
2023-05-06T22:23:37.787Z,12.00
2023-05-06T22:26:04.984Z,11.90
2023-05-06T22:28:32.104Z,11.80
2023-05-06T22:30:59.284Z,11.80
2023-05-06T22:33:27.227Z,11.80
2023-05-06T22:35:55.531Z,11.80
2023-05-06T22:38:22.853Z,11.80
2023-05-06T22:40:50.094Z,11.80
2023-05-06T22:43:17.125Z,11.70
2023-05-06T22:45:44.443Z,11.70
2023-05-06T22:48:11.926Z,11.70
2023-05-06T22:50:39.017Z,11.70
2023-05-06T22:53:14.484Z,11.70
2023-05-06T22:55:43.050Z,11.70
2023-05-06T22:58:10.166Z,11.60
2023-05-06T23:00:37.328Z,11.60
2023-05-06T23:03:06.006Z,11.60
2023-05-06T23:05:33.153Z,11.50
2023-05-06T23:08:00.197Z,11.50
2023-05-06T23:10:27.995Z,11.40
2023-05-06T23:12:55.139Z,11.50
2023-05-06T23:15:23.035Z,11.30
2023-05-06T23:17:50.186Z,11.40
2023-05-06T23:20:17.393Z,11.40
2023-05-06T23:22:44.643Z,11.20
2023-05-06T23:25:12.091Z,11.20
2023-05-06T23:27:40.684Z,11.20
2023-05-06T23:30:10.815Z,11.20
2023-05-06T23:32:38.696Z,11.30
2023-05-06T23:35:07.697Z,11.30
2023-05-06T23:37:35.047Z,11.30
2023-05-06T23:40:02.607Z,11.30
2023-05-06T23:42:29.921Z,11.30
2023-05-06T23:44:58.308Z,11.30
2023-05-06T23:47:25.576Z,11.30
2023-05-06T23:49:52.679Z,11.20
2023-05-06T23:52:19.780Z,11.30
2023-05-06T23:54:46.909Z,11.40
2023-05-06T23:57:13.962Z,11.40
2023-05-06T23:59:41.098Z,11.40
